Time;durP1;ratioP1;P1;durP2;ratioP2;P2;SDS_P1;SDS_P2;PMS_P1;PMS_P2;Temp;Humidity;BMP_temperature;BMP_pressure;BME280_temperature;BME280_humidity;BME280_pressure;Samples;Min_cycle;Max_cycle;Signal;HPM_P1;HPM_P2
2022/05/05 00:01:13;;;;;;;8.37;3.60;;;14.80;99.90;;;;;;4965233;28;20204;-64
2022/05/05 00:03:40;;;;;;;7.40;3.40;;;14.80;99.90;;;;;;4976986;28;20252;-65
2022/05/05 00:06:08;;;;;;;4.00;3.20;;;14.70;99.90;;;;;;4984089;28;20284;-64
2022/05/05 00:08:34;;;;;;;5.73;3.27;;;14.70;99.90;;;;;;4981137;28;20198;-64
2022/05/05 00:16:32;;;;;;;6.70;3.17;;;14.70;99.90;;;;;;4984376;28;20213;-64
2022/05/05 00:18:59;;;;;;;6.43;3.60;;;14.90;99.90;;;;;;4974679;28;20565;-64
2022/05/05 00:21:25;;;;;;;6.63;3.80;;;14.80;99.90;;;;;;4978125;28;20204;-64
2022/05/05 00:23:52;;;;;;;9.27;3.33;;;15.00;99.90;;;;;;4972442;28;20637;-64
2022/05/05 00:26:18;;;;;;;5.40;3.30;;;15.10;99.90;;;;;;4972665;28;20198;-64
2022/05/05 00:28:45;;;;;;;8.10;3.50;;;15.10;99.90;;;;;;4976247;28;20201;-64
2022/05/05 00:31:12;;;;;;;4.67;3.10;;;15.00;99.90;;;;;;4974124;28;20193;-64
2022/05/05 00:33:38;;;;;;;5.53;3.57;;;15.00;99.90;;;;;;4968184;28;20807;-64
2022/05/05 00:36:06;;;;;;;7.07;3.13;;;15.10;99.90;;;;;;4972056;28;20210;-64
2022/05/05 00:38:33;;;;;;;6.33;3.30;;;15.10;99.90;;;;;;4970890;28;20225;-68
2022/05/05 00:41:00;;;;;;;5.30;3.67;;;15.00;99.90;;;;;;4977717;28;20205;-65
2022/05/05 00:43:29;;;;;;;10.17;3.43;;;14.90;99.90;;;;;;4969273;28;20193;-64
2022/05/05 00:45:56;;;;;;;7.83;3.40;;;14.80;99.90;;;;;;4977596;28;20211;-66
2022/05/05 00:48:27;;;;;;;6.37;3.17;;;14.90;99.90;;;;;;4975281;28;20201;-66
2022/05/05 00:50:54;;;;;;;5.73;3.17;;;14.80;99.90;;;;;;4983337;28;20659;-64
2022/05/05 00:53:21;;;;;;;6.30;3.33;;;14.80;99.90;;;;;;4968294;28;20202;-64
2022/05/05 00:55:53;;;;;;;10.30;4.13;;;14.90;99.90;;;;;;4984937;28;20201;-64
2022/05/05 00:58:21;;;;;;;5.03;3.50;;;14.90;99.90;;;;;;4977625;28;20585;-64
2022/05/05 01:00:48;;;;;;;4.20;3.33;;;14.90;99.90;;;;;;4975200;28;20663;-64
2022/05/05 01:03:15;;;;;;;7.73;3.60;;;14.90;99.90;;;;;;4974913;28;20603;-64
2022/05/05 01:05:43;;;;;;;6.57;3.70;;;14.90;99.90;;;;;;4969950;28;20704;-64
2022/05/05 01:08:11;;;;;;;5.03;3.50;;;14.80;99.90;;;;;;4971472;28;20204;-65
2022/05/05 01:10:37;;;;;;;5.40;3.70;;;14.80;99.90;;;;;;4971075;28;20204;-64
2022/05/05 01:13:04;;;;;;;8.43;3.83;;;14.80;99.90;;;;;;4970829;28;20204;-64
2022/05/05 01:15:34;;;;;;;6.30;4.00;;;14.80;99.90;;;;;;4977973;28;20228;-64
2022/05/05 01:18:00;;;;;;;7.13;3.90;;;14.80;99.90;;;;;;4969094;28;20220;-64
2022/05/05 01:20:27;;;;;;;7.40;4.30;;;14.80;99.90;;;;;;4963937;28;20472;-64
2022/05/05 01:22:54;;;;;;;7.80;4.30;;;14.80;99.90;;;;;;4973955;28;20197;-64
2022/05/05 01:28:14;;;;;;;9.07;4.27;;;14.80;99.90;;;;;;4972336;28;20203;-64
2022/05/05 01:30:45;;;;;;;6.00;3.90;;;14.80;99.90;;;;;;4965888;28;20216;-64
2022/05/05 01:33:21;;;;;;;9.53;3.80;;;14.80;99.90;;;;;;4981068;28;20208;-65
2022/05/05 01:35:51;;;;;;;9.97;3.73;;;14.70;99.90;;;;;;4968665;28;20212;-65
2022/05/05 01:38:20;;;;;;;8.47;4.57;;;14.70;99.90;;;;;;4968881;28;20221;-65
2022/05/05 01:40:47;;;;;;;9.27;3.87;;;14.60;99.90;;;;;;4983136;28;20195;-65
2022/05/05 01:43:16;;;;;;;6.30;4.07;;;14.70;99.90;;;;;;4967119;28;20753;-65
2022/05/05 01:45:44;;;;;;;6.60;3.97;;;14.70;99.90;;;;;;4962027;28;20737;-65
2022/05/05 01:48:11;;;;;;;12.53;4.30;;;14.70;99.90;;;;;;4980406;28;20203;-65
2022/05/05 01:50:38;;;;;;;9.67;4.00;;;14.60;99.90;;;;;;4978611;28;20207;-66
2022/05/05 01:53:05;;;;;;;7.83;4.07;;;14.60;99.90;;;;;;4970085;28;20206;-66
2022/05/05 01:55:33;;;;;;;9.07;4.00;;;14.60;99.90;;;;;;4969090;28;20221;-66
2022/05/05 01:58:01;;;;;;;6.03;4.37;;;14.70;99.90;;;;;;4979383;28;20224;-66
2022/05/05 02:00:28;;;;;;;8.30;4.40;;;14.70;99.90;;;;;;4969215;28;20209;-66
2022/05/05 02:02:55;;;;;;;7.73;3.97;;;14.70;99.90;;;;;;4977941;28;20221;-66
2022/05/05 02:05:22;;;;;;;8.67;4.23;;;14.70;99.90;;;;;;4977538;28;20220;-66
2022/05/05 02:07:49;;;;;;;6.53;4.07;;;14.60;99.90;;;;;;4984091;28;20565;-66
2022/05/05 02:10:17;;;;;;;8.13;4.07;;;14.60;99.90;;;;;;4980453;28;20200;-66
2022/05/05 02:12:45;;;;;;;6.83;4.37;;;14.50;99.90;;;;;;4975169;28;20702;-66
2022/05/05 02:15:13;;;;;;;7.87;3.93;;;14.50;99.90;;;;;;4969479;28;20225;-66
2022/05/05 02:17:42;;;;;;;6.00;4.07;;;14.50;99.90;;;;;;4975398;28;20225;-66
2022/05/05 02:20:12;;;;;;;5.83;4.03;;;14.50;99.90;;;;;;4969040;28;20197;-66
2022/05/05 02:22:43;;;;;;;6.50;4.40;;;14.60;99.90;;;;;;4968960;28;20290;-66
2022/05/05 02:25:10;;;;;;;6.70;4.40;;;14.60;99.90;;;;;;4974946;28;20225;-66
2022/05/05 02:27:53;;;;;;;6.80;4.83;;;14.60;99.90;;;;;;4969397;28;20224;-67
2022/05/05 02:30:24;;;;;;;5.77;4.47;;;14.50;99.90;;;;;;4978834;28;20240;-67
2022/05/05 02:32:51;;;;;;;9.67;5.20;;;14.60;99.90;;;;;;4975215;28;20208;-66
2022/05/05 02:35:19;;;;;;;9.33;5.40;;;14.70;99.90;;;;;;4978312;28;20220;-66
2022/05/05 02:40:31;;;;;;;9.03;5.53;;;14.40;99.90;;;;;;4976354;28;20208;-66
2022/05/05 02:42:59;;;;;;;8.03;5.57;;;14.30;99.90;;;;;;4967708;28;20190;-66
2022/05/05 02:45:26;;;;;;;7.33;5.67;;;14.20;99.90;;;;;;4975364;28;20232;-66
2022/05/05 02:47:53;;;;;;;8.53;6.17;;;14.10;99.90;;;;;;4976551;28;20205;-65
2022/05/05 02:50:20;;;;;;;9.63;6.27;;;14.00;99.90;;;;;;4974689;28;20207;-65
2022/05/05 02:52:47;;;;;;;13.57;7.00;;;14.00;99.90;;;;;;4970641;28;20215;-65
2022/05/05 02:55:14;;;;;;;15.00;7.80;;;14.00;99.90;;;;;;4979512;28;20224;-65
2022/05/05 02:57:40;;;;;;;13.27;7.73;;;14.00;99.90;;;;;;4976106;28;20522;-65
2022/05/05 03:00:12;;;;;;;13.17;7.63;;;14.00;99.90;;;;;;4970400;28;20207;-65
2022/05/05 03:02:41;;;;;;;12.80;7.20;;;13.90;99.90;;;;;;4982438;28;20287;-65
2022/05/05 03:05:15;;;;;;;10.20;6.97;;;13.80;99.90;;;;;;4972346;28;20708;-65
2022/05/05 03:07:42;;;;;;;18.43;8.47;;;13.70;99.90;;;;;;4976781;28;20215;-65
2022/05/05 03:10:11;;;;;;;14.37;9.37;;;13.80;99.90;;;;;;4969237;28;20194;-65
2022/05/05 03:12:38;;;;;;;12.90;8.40;;;13.80;99.90;;;;;;4982379;28;20205;-65
2022/05/05 03:15:06;;;;;;;11.97;8.60;;;13.80;99.90;;;;;;4968866;28;20224;-65
2022/05/05 03:17:33;;;;;;;17.07;10.10;;;13.70;99.90;;;;;;4968816;28;20583;-66
2022/05/05 03:20:00;;;;;;;21.77;11.67;;;13.70;99.90;;;;;;4964453;28;20228;-66
2022/05/05 03:22:27;;;;;;;20.63;12.97;;;13.60;99.90;;;;;;4975772;28;20200;-64
2022/05/05 03:24:53;;;;;;;20.20;12.80;;;13.40;99.90;;;;;;4962892;28;20213;-66
2022/05/05 03:27:20;;;;;;;22.47;13.40;;;13.40;99.90;;;;;;4968951;28;20479;-66
2022/05/05 03:29:47;;;;;;;18.33;11.97;;;13.30;99.90;;;;;;4966276;28;20196;-64
2022/05/05 03:32:15;;;;;;;14.77;10.60;;;13.50;99.90;;;;;;4964593;28;20700;-67
2022/05/05 03:34:42;;;;;;;16.73;10.70;;;13.40;99.90;;;;;;4969115;28;20225;-65
2022/05/05 03:37:09;;;;;;;20.70;12.60;;;13.20;99.90;;;;;;4979058;28;20203;-66
2022/05/05 03:39:35;;;;;;;19.80;12.17;;;13.40;99.90;;;;;;4962197;28;20239;-66
2022/05/05 03:42:03;;;;;;;20.17;13.13;;;13.50;99.90;;;;;;4972023;28;20200;-65
2022/05/05 03:44:30;;;;;;;27.10;15.23;;;13.30;99.90;;;;;;4970760;28;20224;-65
2022/05/05 03:46:56;;;;;;;22.80;14.07;;;13.40;99.90;;;;;;4976561;28;20193;-65
2022/05/05 03:49:23;;;;;;;28.10;14.23;;;13.30;99.90;;;;;;4972299;28;20209;-66
2022/05/05 03:51:50;;;;;;;23.73;14.87;;;13.30;99.90;;;;;;4974303;28;20660;-67
2022/05/05 03:54:16;;;;;;;22.70;13.63;;;13.40;99.90;;;;;;4969167;28;20310;-67
2022/05/05 03:56:44;;;;;;;20.03;13.40;;;13.30;99.90;;;;;;4976499;28;20669;-65
2022/05/05 03:59:10;;;;;;;22.30;13.50;;;13.30;99.90;;;;;;4972019;28;20222;-67
2022/05/05 04:01:37;;;;;;;21.90;13.80;;;13.30;99.90;;;;;;4966906;28;20203;-67
2022/05/05 04:04:04;;;;;;;18.77;12.73;;;13.40;99.90;;;;;;4977263;28;20214;-65
2022/05/05 04:06:31;;;;;;;25.27;13.97;;;13.30;99.90;;;;;;4972677;28;20203;-66
2022/05/05 04:08:58;;;;;;;23.67;14.00;;;13.30;99.90;;;;;;4971513;28;20665;-65
2022/05/05 04:11:25;;;;;;;24.80;15.43;;;13.20;99.90;;;;;;4967242;28;20210;-65
2022/05/05 04:13:51;;;;;;;21.73;14.63;;;13.10;99.90;;;;;;4976691;28;20572;-65
2022/05/05 04:16:18;;;;;;;21.27;14.20;;;13.20;99.90;;;;;;4977321;28;20200;-65
2022/05/05 04:18:45;;;;;;;24.33;13.97;;;13.30;99.90;;;;;;4975674;28;20256;-66
2022/05/05 04:21:11;;;;;;;20.50;13.53;;;13.40;99.90;;;;;;4982272;28;20570;-65
2022/05/05 04:23:38;;;;;;;25.73;13.73;;;13.40;99.90;;;;;;4978214;28;20562;-66
2022/05/05 04:26:10;;;;;;;23.83;14.10;;;13.40;99.90;;;;;;4977881;28;20603;-65
2022/05/05 04:28:37;;;;;;;22.30;14.43;;;13.50;99.90;;;;;;4974025;28;20204;-67
2022/05/05 04:31:04;;;;;;;19.80;13.47;;;13.30;99.90;;;;;;4979575;28;20435;-65
2022/05/05 04:33:31;;;;;;;18.50;13.27;;;13.20;99.90;;;;;;4969464;28;20232;-65
2022/05/05 04:35:57;;;;;;;20.27;13.47;;;13.20;99.90;;;;;;4967793;28;20216;-66
2022/05/05 04:38:24;;;;;;;21.53;13.17;;;13.50;99.90;;;;;;4975513;28;20228;-66
2022/05/05 04:40:51;;;;;;;22.87;13.80;;;13.40;99.90;;;;;;4984633;28;20196;-66
2022/05/05 04:43:17;;;;;;;21.43;14.17;;;13.40;99.90;;;;;;4971693;28;20220;-67
2022/05/05 04:45:44;;;;;;;23.07;14.00;;;13.40;99.90;;;;;;4974744;28;20222;-67
2022/05/05 04:48:11;;;;;;;18.83;13.40;;;13.40;99.90;;;;;;4972817;28;20223;-66
2022/05/05 04:50:38;;;;;;;20.70;12.67;;;13.40;99.90;;;;;;4970778;28;20203;-66
2022/05/05 04:53:05;;;;;;;19.30;13.43;;;13.60;99.90;;;;;;4973740;28;20209;-67
2022/05/05 04:55:32;;;;;;;19.40;12.00;;;13.50;99.90;;;;;;4960867;28;20736;-67
2022/05/05 04:57:59;;;;;;;19.03;12.83;;;13.40;99.90;;;;;;4972237;28;20210;-67
2022/05/05 05:00:25;;;;;;;23.70;12.30;;;13.30;99.90;;;;;;4977901;28;20277;-66
2022/05/05 05:02:52;;;;;;;19.70;11.23;;;13.40;99.90;;;;;;4977572;28;20196;-67
2022/05/05 05:05:19;;;;;;;19.90;11.87;;;13.50;99.90;;;;;;4969742;28;20588;-67
2022/05/05 05:07:45;;;;;;;17.87;11.37;;;13.60;99.90;;;;;;4970433;28;20245;-68
2022/05/05 05:10:12;;;;;;;19.03;11.43;;;13.50;99.90;;;;;;4982879;28;20205;-68
2022/05/05 05:12:39;;;;;;;14.83;10.93;;;13.50;99.90;;;;;;4968756;28;20208;-67
2022/05/05 05:15:07;;;;;;;17.93;10.40;;;13.70;99.90;;;;;;4973565;28;20220;-66
2022/05/05 05:17:34;;;;;;;14.70;10.57;;;13.80;99.90;;;;;;4965790;28;20671;-67
2022/05/05 05:20:01;;;;;;;15.47;10.70;;;13.80;99.90;;;;;;4973656;28;20228;-67
2022/05/05 05:22:27;;;;;;;17.33;11.33;;;13.70;99.90;;;;;;4973734;28;20197;-66
2022/05/05 05:24:54;;;;;;;17.13;11.30;;;13.70;99.90;;;;;;4976568;28;20681;-66
2022/05/05 05:27:21;;;;;;;17.00;9.60;;;13.70;99.90;;;;;;4967522;28;20200;-67
2022/05/05 05:29:48;;;;;;;13.07;9.20;;;13.80;99.90;;;;;;4966987;28;20208;-67
2022/05/05 05:32:15;;;;;;;13.17;9.40;;;13.80;99.90;;;;;;4970516;28;20209;-67
2022/05/05 05:34:41;;;;;;;15.50;10.33;;;13.90;99.90;;;;;;4969015;28;20745;-67
2022/05/05 05:37:08;;;;;;;16.47;10.73;;;13.90;99.90;;;;;;4976818;28;20204;-68
2022/05/05 05:39:35;;;;;;;18.30;11.27;;;14.00;99.90;;;;;;4963361;28;20231;-68
2022/05/05 05:42:02;;;;;;;18.23;10.87;;;14.00;99.90;;;;;;4960445;28;20672;-66
2022/05/05 05:44:28;;;;;;;14.80;9.93;;;14.00;99.90;;;;;;4975870;28;20220;-67
2022/05/05 05:46:55;;;;;;;14.87;9.93;;;14.00;99.90;;;;;;4967941;28;20197;-67
2022/05/05 05:49:21;;;;;;;17.43;10.63;;;14.00;99.90;;;;;;4970205;28;20213;-68
2022/05/05 05:51:48;;;;;;;16.53;10.73;;;14.00;99.90;;;;;;4983487;28;20201;-66
2022/05/05 05:54:17;;;;;;;17.63;10.07;;;14.10;99.90;;;;;;4974087;28;20229;-68
2022/05/05 05:56:45;;;;;;;14.27;10.03;;;14.10;99.90;;;;;;4971648;28;20209;-69
2022/05/05 05:59:11;;;;;;;18.53;11.47;;;14.20;99.90;;;;;;4970125;28;20225;-67
2022/05/05 06:04:24;;;;;;;18.87;11.07;;;14.30;99.90;;;;;;4976886;28;20737;-67
2022/05/05 06:06:51;;;;;;;18.83;11.77;;;14.30;99.90;;;;;;4968844;28;20201;-66
2022/05/05 06:09:18;;;;;;;23.30;11.93;;;14.40;99.90;;;;;;4951541;28;20194;-67
2022/05/05 06:11:45;;;;;;;17.43;10.43;;;14.30;99.90;;;;;;4966259;28;20214;-67
2022/05/05 06:14:11;;;;;;;20.83;11.57;;;14.30;99.90;;;;;;4963716;28;20567;-67
2022/05/05 06:16:38;;;;;;;23.50;13.00;;;14.30;99.90;;;;;;4962495;28;20209;-67
2022/05/05 06:19:05;;;;;;;22.50;12.50;;;14.40;99.90;;;;;;4964510;28;20225;-67
2022/05/05 06:21:31;;;;;;;19.37;11.47;;;14.40;99.90;;;;;;4969376;28;20213;-67
2022/05/05 06:23:58;;;;;;;23.40;11.13;;;14.40;99.90;;;;;;4964165;28;20231;-64
2022/05/05 06:26:27;;;;;;;17.17;11.63;;;14.30;99.90;;;;;;4964419;28;20208;-66
2022/05/05 06:28:55;;;;;;;19.83;11.87;;;14.40;99.90;;;;;;4963157;28;20260;-65
2022/05/05 06:31:23;;;;;;;15.67;11.23;;;14.30;99.90;;;;;;4966083;28;20205;-65
2022/05/05 06:33:50;;;;;;;18.93;11.13;;;14.30;99.90;;;;;;4962420;28;20628;-66
2022/05/05 06:36:17;;;;;;;19.50;12.07;;;14.20;99.90;;;;;;4963344;28;20891;-67
2022/05/05 06:38:43;;;;;;;19.83;12.53;;;14.10;99.90;;;;;;4964258;28;20238;-65
2022/05/05 06:41:13;;;;;;;18.10;11.90;;;14.10;99.90;;;;;;4964856;28;20204;-67
2022/05/05 06:43:40;;;;;;;18.50;12.23;;;14.00;99.90;;;;;;4961160;28;20239;-69
2022/05/05 06:46:07;;;;;;;23.93;11.33;;;14.10;99.90;;;;;;4962296;28;20679;-66
2022/05/05 06:48:34;;;;;;;18.63;11.83;;;14.10;99.90;;;;;;4970113;28;20714;-66
2022/05/05 06:51:01;;;;;;;19.90;11.40;;;14.30;99.90;;;;;;4963182;28;20212;-68
2022/05/05 06:53:28;;;;;;;16.63;11.10;;;14.30;99.90;;;;;;4967238;28;20576;-67
2022/05/05 06:55:57;;;;;;;16.13;10.60;;;14.30;99.90;;;;;;4967161;28;20721;-67
2022/05/05 06:58:24;;;;;;;17.83;11.17;;;14.30;99.90;;;;;;4968626;28;20232;-67
2022/05/05 07:03:36;;;;;;;20.17;12.03;;;14.50;99.90;;;;;;4963181;28;20280;-67
2022/05/05 07:06:03;;;;;;;17.73;11.13;;;14.60;99.90;;;;;;4962611;28;20692;-68
2022/05/05 07:10:52;;;;;;;18.13;12.17;;;14.50;99.90;;;;;;4961954;28;20562;-66
2022/05/05 07:11:16;;;;;;;19.63;12.00;;;14.60;99.90;;;;;;4960110;28;20609;-67
2022/05/05 07:13:43;;;;;;;19.60;11.50;;;14.60;99.90;;;;;;4957303;28;20692;-68
2022/05/05 07:16:10;;;;;;;25.90;12.60;;;14.60;99.90;;;;;;4963722;28;20193;-67
2022/05/05 07:18:37;;;;;;;19.73;12.03;;;14.60;99.90;;;;;;4963850;28;20205;-67
2022/05/05 07:21:04;;;;;;;17.80;11.90;;;14.60;99.90;;;;;;4969488;28;20197;-67
2022/05/05 07:23:31;;;;;;;20.90;12.57;;;14.60;99.90;;;;;;4970431;28;20296;-68
2022/05/05 07:25:57;;;;;;;20.03;12.73;;;14.60;99.90;;;;;;4964672;28;20200;-67
2022/05/05 07:28:25;;;;;;;21.07;12.33;;;14.50;99.90;;;;;;4967608;28;20240;-67
2022/05/05 07:30:52;;;;;;;22.80;13.83;;;14.60;99.90;;;;;;4966536;28;20202;-67
2022/05/05 07:33:20;;;;;;;22.67;13.23;;;14.60;99.90;;;;;;4966089;28;20206;-67
2022/05/05 07:35:48;;;;;;;21.43;12.00;;;14.60;99.90;;;;;;4968779;28;20211;-67
2022/05/05 07:38:15;;;;;;;19.67;12.40;;;14.60;99.90;;;;;;4966762;28;20210;-67
2022/05/05 07:40:47;;;;;;;20.97;12.27;;;14.70;99.90;;;;;;4966447;28;20261;-67
2022/05/05 07:43:14;;;;;;;17.10;12.07;;;14.80;99.90;;;;;;4970086;28;20200;-66
2022/05/05 07:45:40;;;;;;;18.77;11.77;;;15.00;99.90;;;;;;4970165;28;20239;-67
2022/05/05 07:48:08;;;;;;;17.37;11.57;;;15.30;99.90;;;;;;4965417;28;20225;-68
2022/05/05 07:50:34;;;;;;;20.57;13.30;;;15.40;99.90;;;;;;4969842;28;20213;-67
2022/05/05 07:53:01;;;;;;;17.53;11.73;;;15.60;99.90;;;;;;4973184;28;20205;-67
2022/05/05 07:55:28;;;;;;;20.83;12.87;;;15.70;99.90;;;;;;4968100;28;20228;-69
2022/05/05 07:57:54;;;;;;;18.10;12.47;;;15.80;99.90;;;;;;4965202;28;20206;-67
2022/05/05 08:00:21;;;;;;;18.27;11.90;;;15.90;99.90;;;;;;4965152;28;20940;-67
2022/05/05 08:02:48;;;;;;;22.73;12.67;;;16.20;99.90;;;;;;4965851;28;20208;-67
2022/05/05 08:05:15;;;;;;;18.90;12.17;;;16.40;99.90;;;;;;4964663;28;20703;-67
2022/05/05 08:07:48;;;;;;;18.37;11.90;;;16.40;99.90;;;;;;4964048;28;20296;-67
2022/05/05 08:10:18;;;;;;;18.27;11.53;;;16.40;99.90;;;;;;4971005;28;20324;-67
2022/05/05 08:12:45;;;;;;;19.50;11.60;;;16.50;99.90;;;;;;4965178;28;20197;-66
2022/05/05 08:15:14;;;;;;;16.60;11.50;;;16.60;99.90;;;;;;4965208;28;20715;-65
2022/05/05 08:17:41;;;;;;;15.50;9.97;;;16.80;99.90;;;;;;4966176;28;20270;-66
2022/05/05 08:20:09;;;;;;;17.73;11.30;;;16.90;99.90;;;;;;4967295;28;20225;-66
2022/05/05 08:22:36;;;;;;;16.70;11.47;;;17.00;99.90;;;;;;4964871;28;20217;-66
2022/05/05 08:30:35;;;;;;;18.20;11.57;;;17.20;99.90;;;;;;4967480;28;20205;-66
2022/05/05 08:33:02;;;;;;;16.77;11.43;;;17.40;99.90;;;;;;4963702;28;20253;-66
2022/05/05 08:35:29;;;;;;;16.03;10.80;;;17.40;99.90;;;;;;4960360;28;20213;-67
2022/05/05 08:37:56;;;;;;;15.93;10.77;;;17.70;99.90;;;;;;4974884;28;20205;-67
2022/05/05 08:40:27;;;;;;;14.50;10.57;;;17.90;99.90;;;;;;4967922;28;20225;-67
2022/05/05 08:42:54;;;;;;;16.67;9.77;;;18.40;99.90;;;;;;4969947;28;20201;-67
2022/05/05 08:45:22;;;;;;;15.77;9.90;;;18.70;99.90;;;;;;4965437;28;20225;-67
2022/05/05 08:47:53;;;;;;;13.40;9.60;;;19.00;99.90;;;;;;4964674;28;20217;-67
2022/05/05 08:50:21;;;;;;;14.13;8.90;;;18.90;99.90;;;;;;4964219;28;20213;-67
2022/05/05 08:52:49;;;;;;;16.37;9.60;;;19.30;99.90;;;;;;4968244;28;20209;-67
2022/05/05 08:55:18;;;;;;;11.30;8.00;;;19.60;99.90;;;;;;4971006;28;20612;-67
2022/05/05 08:57:45;;;;;;;12.73;8.73;;;20.10;99.90;;;;;;4966521;28;20213;-67
2022/05/05 09:00:14;;;;;;;11.32;8.52;;;20.50;99.90;;;;;;4965076;28;21291;-67
2022/05/05 09:02:43;;;;;;;13.50;8.50;;;20.70;99.90;;;;;;4963863;28;20264;-67
2022/05/05 09:05:10;;;;;;;12.02;7.47;;;20.50;99.90;;;;;;4968742;28;20227;-67
2022/05/05 09:07:47;;;;;;;14.27;8.48;;;20.60;99.90;;;;;;4965904;28;21312;-67
2022/05/05 09:10:16;;;;;;;12.48;8.32;;;20.70;99.90;;;;;;4966557;28;20198;-67
2022/05/05 09:12:59;;;;;;;11.85;7.22;;;20.70;99.90;;;;;;4969475;28;20220;-67
2022/05/05 09:15:30;;;;;;;12.57;7.50;;;20.80;99.90;;;;;;4962635;28;20232;-66
2022/05/05 09:18:25;;;;;;;12.05;7.60;;;20.90;99.90;;;;;;4964843;28;20224;-66
2022/05/05 09:20:52;;;;;;;10.35;6.72;;;21.00;99.90;;;;;;4966385;28;20253;-66
2022/05/05 09:23:36;;;;;;;13.93;7.35;;;21.30;99.90;;;;;;4963581;28;20197;-66
2022/05/05 09:26:05;;;;;;;9.90;7.60;;;21.40;99.90;;;;;;4973583;28;20209;-66
2022/05/05 09:28:35;;;;;;;13.73;7.30;;;21.40;99.90;;;;;;4967875;28;20198;-65
2022/05/05 09:31:06;;;;;;;16.02;8.38;;;21.10;99.90;;;;;;4960574;28;20256;-66
2022/05/05 09:33:41;;;;;;;12.93;7.68;;;20.70;99.90;;;;;;4961636;28;21819;-66
2022/05/05 09:36:10;;;;;;;10.73;7.03;;;20.30;99.90;;;;;;4964693;28;20212;-66
2022/05/05 09:39:00;;;;;;;11.55;7.15;;;20.30;99.90;;;;;;4964641;28;20228;-66
2022/05/05 09:41:28;;;;;;;10.05;7.18;;;20.40;99.90;;;;;;4962605;28;20197;-66
2022/05/05 09:43:57;;;;;;;13.38;8.10;;;20.50;99.90;;;;;;4964697;28;20319;-66
2022/05/05 09:46:26;;;;;;;13.38;7.78;;;20.40;99.90;;;;;;4964034;28;20648;-66
2022/05/05 09:49:03;;;;;;;16.52;8.50;;;20.30;99.90;;;;;;4963511;28;20598;-66
2022/05/05 09:51:30;;;;;;;12.98;8.23;;;20.30;99.90;;;;;;4964425;28;20710;-66
2022/05/05 09:59:40;;;;;;;14.55;8.00;;;20.30;99.90;;;;;;4967708;28;20224;-66
2022/05/05 10:02:15;;;;;;;14.02;8.27;;;20.30;99.90;;;;;;4963002;28;20204;-66
2022/05/05 10:04:49;;;;;;;13.73;8.50;;;20.50;99.90;;;;;;4964985;28;20647;-66
2022/05/05 10:07:19;;;;;;;13.32;8.18;;;20.40;99.90;;;;;;4964180;28;20193;-66
2022/05/05 10:09:47;;;;;;;15.63;8.15;;;20.50;99.90;;;;;;4963067;28;20201;-66
2022/05/05 10:12:14;;;;;;;15.85;7.50;;;20.70;99.90;;;;;;4963698;28;20336;-66
2022/05/05 10:14:41;;;;;;;12.05;7.35;;;20.80;99.90;;;;;;4969113;28;20225;-66
2022/05/05 10:17:08;;;;;;;14.30;7.57;;;21.00;99.90;;;;;;4963037;28;20212;-66
2022/05/05 10:19:36;;;;;;;11.05;7.30;;;21.10;99.90;;;;;;4967385;28;20228;-67
2022/05/05 10:22:11;;;;;;;13.25;6.35;;;21.10;99.90;;;;;;4965484;28;20197;-67
2022/05/05 10:24:53;;;;;;;9.85;6.57;;;21.00;99.90;;;;;;4958870;28;20217;-66
2022/05/05 10:27:20;;;;;;;14.07;7.57;;;21.00;99.90;;;;;;4957104;28;20194;-67
2022/05/05 10:29:47;;;;;;;11.43;7.32;;;21.00;99.90;;;;;;4969200;28;20209;-67
2022/05/05 10:32:22;;;;;;;13.15;6.53;;;20.80;99.90;;;;;;4966857;28;20216;-67
2022/05/05 10:34:53;;;;;;;11.73;6.32;;;21.00;99.90;;;;;;4971204;28;20223;-66
2022/05/05 10:37:31;;;;;;;9.32;5.85;;;20.80;99.90;;;;;;4959158;28;20222;-67
2022/05/05 10:39:58;;;;;;;8.68;5.53;;;20.80;99.90;;;;;;4966497;28;20220;-67
2022/05/05 10:42:34;;;;;;;9.77;6.03;;;20.80;99.90;;;;;;4959634;28;20213;-66
2022/05/05 10:45:12;;;;;;;14.23;6.03;;;21.00;99.90;;;;;;4958988;28;20216;-67
2022/05/05 10:47:58;;;;;;;11.50;6.10;;;21.30;99.90;;;;;;4957580;28;20268;-67
2022/05/05 10:50:39;;;;;;;8.50;4.97;;;21.60;99.90;;;;;;4960444;28;20205;-66
2022/05/05 10:53:08;;;;;;;11.20;5.65;;;21.70;99.90;;;;;;4966749;28;20208;-66
2022/05/05 10:55:43;;;;;;;6.93;5.43;;;22.00;99.90;;;;;;4961885;28;20243;-66
2022/05/05 10:58:59;;;;;;;12.10;6.35;;;22.00;99.90;;;;;;4963041;28;20206;-66
2022/05/05 11:01:27;;;;;;;10.95;5.70;;;21.90;99.90;;;;;;4966977;28;20213;-67
2022/05/05 11:04:17;;;;;;;12.02;5.50;;;22.20;99.90;;;;;;4966350;28;20271;-67
2022/05/05 11:06:45;;;;;;;11.88;5.60;;;22.30;99.90;;;;;;4966253;28;20216;-66
2022/05/05 11:09:37;;;;;;;8.35;5.43;;;22.60;99.90;;;;;;4960825;28;20550;-67
2022/05/05 11:12:16;;;;;;;9.75;5.93;;;22.70;99.90;;;;;;4963493;28;20201;-67
2022/05/05 11:23:49;;;;;;;11.80;5.28;;;22.30;99.90;;;;;;4961926;28;21122;-68
2022/05/05 11:26:17;;;;;;;8.77;4.60;;;22.50;99.90;;;;;;4958915;28;20724;-67
2022/05/05 11:28:45;;;;;;;9.38;5.40;;;23.00;99.90;;;;;;4961233;28;20220;-67
2022/05/05 11:31:28;;;;;;;8.90;5.47;;;23.50;99.90;;;;;;4958320;28;20906;-68
2022/05/05 11:34:05;;;;;;;11.38;6.35;;;23.90;99.90;;;;;;4960534;28;20731;-65
2022/05/05 11:36:35;;;;;;;12.15;6.53;;;24.20;99.90;;;;;;4961686;28;20216;-65
2022/05/05 11:39:03;;;;;;;9.85;5.82;;;24.50;99.90;;;;;;4962281;28;20656;-66
2022/05/05 11:41:30;;;;;;;9.38;5.18;;;24.60;99.90;;;;;;4961905;28;20345;-66
2022/05/05 11:44:17;;;;;;;13.68;6.00;;;24.60;99.90;;;;;;4962168;28;20241;-66
2022/05/05 11:46:44;;;;;;;10.93;5.57;;;24.70;99.90;;;;;;4959545;28;20882;-65
2022/05/05 11:49:12;;;;;;;9.95;5.60;;;24.80;99.90;;;;;;4965405;28;20205;-66
2022/05/05 11:51:38;;;;;;;12.75;6.53;;;25.00;99.90;;;;;;4959574;28;20691;-66
2022/05/05 11:54:16;;;;;;;7.57;5.22;;;24.40;99.90;;;;;;4960938;28;20719;-65
2022/05/05 11:56:47;;;;;;;9.50;6.40;;;23.80;99.90;;;;;;4959897;28;20201;-65
2022/05/05 12:02:04;;;;;;;10.82;5.80;;;23.10;99.90;;;;;;4961277;28;20596;-65
2022/05/05 12:04:33;;;;;;;10.23;6.00;;;23.40;99.90;;;;;;4961247;28;20232;-65
2022/05/05 12:07:00;;;;;;;9.65;6.30;;;23.10;99.90;;;;;;4962360;28;20212;-65
2022/05/05 12:09:27;;;;;;;11.95;6.80;;;22.80;99.90;;;;;;4961471;28;20217;-65
2022/05/05 12:12:08;;;;;;;12.65;7.40;;;22.30;99.90;;;;;;4960857;28;20202;-65
2022/05/05 12:14:44;;;;;;;11.38;6.93;;;22.30;99.90;;;;;;4961489;28;20648;-66
2022/05/05 12:17:12;;;;;;;11.30;6.30;;;22.50;99.90;;;;;;4961034;28;20767;-65
2022/05/05 12:19:48;;;;;;;12.02;6.28;;;22.80;99.90;;;;;;4964477;28;20202;-65
2022/05/05 12:22:28;;;;;;;11.80;6.82;;;22.70;99.90;;;;;;4963277;28;20646;-66
2022/05/05 12:25:00;;;;;;;11.45;6.40;;;22.60;99.90;;;;;;4965312;28;20221;-65
2022/05/05 12:27:27;;;;;;;11.63;5.50;;;22.60;99.90;;;;;;4966267;28;20194;-66
2022/05/05 12:29:53;;;;;;;9.57;5.43;;;23.10;99.90;;;;;;4969092;28;20679;-65
2022/05/05 12:32:21;;;;;;;11.95;6.40;;;23.30;99.90;;;;;;4962832;28;20726;-65
2022/05/05 12:34:48;;;;;;;14.70;7.45;;;23.30;99.90;;;;;;4960390;28;20730;-65
2022/05/05 12:37:19;;;;;;;11.38;6.90;;;23.10;99.90;;;;;;4967283;28;20202;-65
2022/05/05 12:39:49;;;;;;;11.43;6.57;;;22.80;99.90;;;;;;4966733;28;21342;-66
2022/05/05 12:42:16;;;;;;;11.15;6.35;;;22.90;99.90;;;;;;4969726;28;20213;-65
2022/05/05 12:44:44;;;;;;;11.13;6.05;;;23.00;99.90;;;;;;4966421;28;20718;-65
2022/05/05 12:47:11;;;;;;;11.13;5.82;;;23.30;99.90;;;;;;4963894;28;20200;-65
2022/05/05 12:49:39;;;;;;;12.23;7.03;;;23.50;99.90;;;;;;4964256;28;20209;-65
2022/05/05 12:59:36;;;;;;;11.65;6.82;;;23.20;99.90;;;;;;4972498;28;20202;-65
2022/05/05 13:00:26;;;;;;;9.25;6.13;;;23.20;99.90;;;;;;4963234;28;20595;-65
2022/05/05 13:03:12;;;;;;;9.55;6.15;;;23.70;99.90;;;;;;4965659;28;20260;-66
2022/05/05 13:05:40;;;;;;;9.43;5.72;;;24.10;99.90;;;;;;4963934;28;20843;-65
2022/05/05 13:08:06;;;;;;;10.57;5.57;;;24.40;99.90;;;;;;4973150;28;20197;-65
2022/05/05 13:10:33;;;;;;;10.35;5.68;;;24.40;99.90;;;;;;4966611;28;20205;-65
2022/05/05 13:13:00;;;;;;;10.57;6.70;;;24.00;99.90;;;;;;4967165;28;20194;-65
2022/05/05 13:15:27;;;;;;;9.90;6.13;;;23.50;99.90;;;;;;4975225;28;20308;-65
2022/05/05 13:17:54;;;;;;;14.25;6.10;;;23.40;99.90;;;;;;4964254;28;20754;-65
2022/05/05 13:20:21;;;;;;;9.45;5.82;;;23.50;99.90;;;;;;4967541;28;20221;-65
2022/05/05 13:22:48;;;;;;;9.00;6.03;;;23.90;99.90;;;;;;4964282;28;20317;-65
2022/05/05 13:25:15;;;;;;;9.73;6.32;;;23.60;99.90;;;;;;4963521;28;20209;-66
2022/05/05 13:27:42;;;;;;;9.02;6.00;;;23.50;99.90;;;;;;4968122;28;20213;-65
2022/05/05 13:30:09;;;;;;;9.65;6.55;;;23.70;99.90;;;;;;4966008;28;20206;-65